Terminal Aerodrome Forecast
Issued by NWS Brownsville, TX

Home | Current Version | Previous Version | Text Only | Print | Product List | Glossary On
Versions: 1 2 3 4 5 6 7 8 9 10 11 12 13 14 15 16 17 18 19 20
851
FTUS44 KBRO 290553 CCA
TAFMFE
TAF COR
KMFE 290553Z 2906/3006 13011KT P6SM BKN015
     FM290630 14006KT P6SM VCTS BKN025CB
      TEMPO 2907/2911 4SM TSRA OVC015CB
     FM291400 14009KT 5SM TSRA OVC025CB
     FM291800 09012KT P6SM VCTS BKN040CB
     FM300000 08009KT P6SM VCSH SCT050 BKN150=

USA.gov is the U.S. government's official web portal to all federal, state and local government web resources and services.